Time;durP1;ratioP1;P1;durP2;ratioP2;P2;SDS_P1;SDS_P2;PMS_P1;PMS_P2;Temp;Humidity;BMP_temperature;BMP_pressure;BME280_temperature;BME280_humidity;BME280_pressure;Samples;Min_cycle;Max_cycle;Signal;HPM_P1;HPM_P2
2023/03/16 00:01:23;;;;;;;12.50;11.30;;;3.40;99.90;;;;;;5024936;28;20461;-70
2023/03/16 00:03:48;;;;;;;13.93;12.53;;;3.50;99.90;;;;;;5025297;28;20958;-71
2023/03/16 00:06:14;;;;;;;12.07;10.87;;;3.40;99.90;;;;;;5024733;28;20414;-70
2023/03/16 00:08:42;;;;;;;15.77;14.27;;;3.40;99.90;;;;;;5024913;28;20418;-71
2023/03/16 00:11:07;;;;;;;11.53;10.43;;;3.40;99.90;;;;;;5025036;28;21170;-70
2023/03/16 00:13:33;;;;;;;11.77;10.50;;;3.40;99.90;;;;;;5024712;28;20839;-70
2023/03/16 00:16:01;;;;;;;13.30;12.00;;;3.20;99.90;;;;;;5024799;28;20278;-69
2023/03/16 00:18:28;;;;;;;15.50;12.07;;;3.20;99.90;;;;;;5024440;28;20507;-71
2023/03/16 00:20:58;;;;;;;15.43;12.67;;;3.30;99.90;;;;;;5023862;28;20457;-71
2023/03/16 00:23:28;;;;;;;13.60;12.20;;;3.30;99.90;;;;;;5024495;28;20482;-70
2023/03/16 00:25:55;;;;;;;12.37;10.80;;;3.40;99.90;;;;;;5024615;28;20437;-70
2023/03/16 00:28:22;;;;;;;13.43;12.03;;;3.40;99.90;;;;;;5024795;28;20410;-71
2023/03/16 00:30:47;;;;;;;14.50;12.90;;;3.40;99.90;;;;;;5024702;28;20774;-69
2023/03/16 00:33:13;;;;;;;15.37;13.77;;;3.40;99.90;;;;;;5024275;28;20705;-69
2023/03/16 00:35:38;;;;;;;15.73;14.13;;;3.40;99.90;;;;;;5024134;28;20220;-70
2023/03/16 00:38:04;;;;;;;17.70;15.80;;;3.30;99.90;;;;;;5024871;28;20237;-73
2023/03/16 00:40:30;;;;;;;17.00;13.23;;;3.30;99.90;;;;;;5024943;28;20207;-70
2023/03/16 00:42:56;;;;;;;17.43;15.53;;;3.30;99.90;;;;;;5024392;28;20512;-69
2023/03/16 00:45:22;;;;;;;17.60;13.80;;;3.40;99.90;;;;;;5025080;28;20538;-72
2023/03/16 00:47:48;;;;;;;14.37;12.93;;;3.30;99.90;;;;;;5024588;28;20410;-69
2023/03/16 00:50:14;;;;;;;14.93;13.30;;;3.30;99.90;;;;;;5023902;28;20405;-70
2023/03/16 00:52:41;;;;;;;15.57;13.53;;;3.30;99.90;;;;;;5024170;28;20468;-70
2023/03/16 00:55:07;;;;;;;17.13;15.33;;;3.30;99.90;;;;;;5024009;28;20426;-71
2023/03/16 00:57:33;;;;;;;15.97;14.40;;;3.30;99.90;;;;;;5023828;28;20520;-71
2023/03/16 00:59:59;;;;;;;16.87;15.07;;;3.30;99.90;;;;;;5023764;28;20607;-72
2023/03/16 01:02:24;;;;;;;14.43;12.53;;;3.20;99.90;;;;;;5022925;28;20485;-71
2023/03/16 01:04:53;;;;;;;16.13;13.03;;;3.20;99.90;;;;;;5024148;28;20772;-70
2023/03/16 01:07:20;;;;;;;14.93;13.33;;;3.20;99.90;;;;;;5023479;28;20342;-69
2023/03/16 01:09:47;;;;;;;13.83;12.50;;;3.20;99.90;;;;;;5023992;28;20410;-69
2023/03/16 01:12:15;;;;;;;16.07;13.80;;;3.20;99.90;;;;;;5024070;28;20485;-69
2023/03/16 01:14:44;;;;;;;17.93;12.77;;;3.20;99.90;;;;;;5023491;28;20410;-69
2023/03/16 01:17:12;;;;;;;13.10;11.70;;;3.20;99.90;;;;;;5024085;28;20425;-67
2023/03/16 01:19:38;;;;;;;13.10;11.93;;;3.20;99.90;;;;;;5023943;28;20701;-71
2023/03/16 01:22:06;;;;;;;13.07;11.77;;;3.20;99.90;;;;;;5023826;28;20871;-69
2023/03/16 01:24:33;;;;;;;13.00;11.17;;;3.20;99.90;;;;;;5023864;28;20429;-69
2023/03/16 01:26:59;;;;;;;14.90;12.67;;;3.20;99.90;;;;;;5023602;28;20463;-72
2023/03/16 01:29:25;;;;;;;11.73;10.53;;;3.30;99.90;;;;;;5023799;28;20414;-69
2023/03/16 01:31:50;;;;;;;13.93;12.40;;;3.20;99.90;;;;;;5023188;28;20787;-69
2023/03/16 01:34:17;;;;;;;12.43;11.23;;;3.20;99.90;;;;;;5023825;28;20182;-72
2023/03/16 01:36:45;;;;;;;14.70;11.00;;;3.20;99.90;;;;;;5023070;28;20183;-69
2023/03/16 01:39:12;;;;;;;11.43;10.33;;;3.10;99.90;;;;;;5023216;28;21425;-68
2023/03/16 01:41:40;;;;;;;12.50;11.23;;;3.20;99.90;;;;;;5022909;28;20568;-69
2023/03/16 01:44:11;;;;;;;11.90;10.70;;;3.10;99.90;;;;;;5023021;28;20406;-69
2023/03/16 01:46:36;;;;;;;10.00;9.00;;;3.10;99.90;;;;;;5023203;28;20407;-69
2023/03/16 01:49:13;;;;;;;12.80;11.57;;;3.20;99.90;;;;;;5022763;28;20413;-68
2023/03/16 01:52:01;;;;;;;9.93;8.93;;;3.20;99.90;;;;;;5022634;28;20206;-70
2023/03/16 01:54:27;;;;;;;12.03;10.83;;;3.20;99.90;;;;;;5023064;28;20402;-69
2023/03/16 01:57:07;;;;;;;12.47;10.47;;;3.30;99.90;;;;;;5023499;28;20414;-72
2023/03/16 01:59:56;;;;;;;14.33;11.37;;;3.30;99.90;;;;;;5023007;28;20585;-69
2023/03/16 02:02:26;;;;;;;12.30;11.00;;;3.20;99.90;;;;;;5021972;28;20470;-70
2023/03/16 02:05:11;;;;;;;15.97;14.23;;;3.30;99.90;;;;;;5022901;28;20437;-69
2023/03/16 02:07:42;;;;;;;15.70;14.07;;;3.20;99.90;;;;;;5022322;28;20416;-72
2023/03/16 02:10:09;;;;;;;18.27;16.47;;;3.10;99.90;;;;;;5022577;28;20410;-69
2023/03/16 02:12:35;;;;;;;18.07;16.03;;;3.00;99.90;;;;;;5022792;28;20444;-69
2023/03/16 02:15:01;;;;;;;18.27;16.37;;;2.90;99.90;;;;;;5022215;28;20414;-70
2023/03/16 02:17:29;;;;;;;22.67;20.27;;;2.90;99.90;;;;;;5022547;28;20665;-71
2023/03/16 02:20:05;;;;;;;18.90;15.73;;;2.90;99.90;;;;;;5022967;28;20214;-71
2023/03/16 02:22:34;;;;;;;18.40;16.50;;;2.80;99.90;;;;;;5022166;28;20790;-70
2023/03/16 02:25:00;;;;;;;18.53;16.50;;;2.90;99.90;;;;;;5022503;28;20406;-70
2023/03/16 02:27:41;;;;;;;17.83;16.03;;;2.90;99.90;;;;;;5022735;28;20409;-72
2023/03/16 02:30:13;;;;;;;18.00;16.10;;;3.00;99.90;;;;;;5022795;28;20580;-70
2023/03/16 02:32:40;;;;;;;18.93;16.27;;;3.00;99.90;;;;;;5022674;28;20429;-69
2023/03/16 02:35:08;;;;;;;17.90;14.80;;;3.00;99.90;;;;;;5022839;28;20433;-70
2023/03/16 02:37:33;;;;;;;23.23;17.40;;;3.00;99.90;;;;;;5022722;28;20410;-70
2023/03/16 02:40:01;;;;;;;19.70;16.57;;;3.00;99.90;;;;;;5022646;28;20939;-69
2023/03/16 02:42:27;;;;;;;18.47;16.57;;;3.00;99.90;;;;;;5020630;28;20229;-73
2023/03/16 02:44:56;;;;;;;21.53;18.17;;;3.10;99.90;;;;;;5022763;28;20433;-69
2023/03/16 02:47:40;;;;;;;18.50;16.60;;;3.10;99.90;;;;;;5022987;28;20410;-72
2023/03/16 02:50:08;;;;;;;16.57;15.00;;;3.20;99.90;;;;;;5022352;28;20460;-71
2023/03/16 02:52:35;;;;;;;18.90;15.33;;;3.20;99.90;;;;;;5021905;28;21012;-72
2023/03/16 02:55:01;;;;;;;19.83;16.53;;;3.10;99.90;;;;;;5021332;28;20813;-70
2023/03/16 02:57:26;;;;;;;16.07;13.90;;;3.10;99.90;;;;;;5022730;28;20441;-73
2023/03/16 02:59:52;;;;;;;17.27;15.47;;;3.00;99.90;;;;;;5022562;28;20668;-70
2023/03/16 03:02:17;;;;;;;17.60;15.70;;;3.00;99.90;;;;;;5047422;23;20227;-70
2023/03/16 03:04:46;;;;;;;15.90;14.30;;;3.00;99.90;;;;;;5023785;28;20654;-72
2023/03/16 03:07:13;;;;;;;18.50;15.73;;;3.00;99.90;;;;;;5020845;28;20202;-71
2023/03/16 03:09:42;;;;;;;17.00;15.30;;;2.90;99.90;;;;;;5023510;28;20573;-74
2023/03/16 03:12:08;;;;;;;17.90;15.80;;;3.00;99.90;;;;;;5021813;28;20929;-73
2023/03/16 03:14:38;;;;;;;20.60;15.93;;;2.90;99.90;;;;;;5022847;28;20465;-72
2023/03/16 03:17:08;;;;;;;16.63;14.87;;;3.00;99.90;;;;;;5023162;28;20791;-72
2023/03/16 03:19:34;;;;;;;16.80;15.00;;;3.00;99.90;;;;;;5020528;28;20414;-72
2023/03/16 03:22:05;;;;;;;20.73;17.37;;;3.00;99.90;;;;;;5022460;28;20461;-71
2023/03/16 03:24:32;;;;;;;16.40;14.70;;;2.90;99.90;;;;;;5023012;28;20464;-70
2023/03/16 03:26:59;;;;;;;16.83;15.10;;;3.00;99.90;;;;;;5025090;28;20461;-73
2023/03/16 03:29:33;;;;;;;19.73;15.97;;;3.00;99.90;;;;;;5026595;28;20932;-71
2023/03/16 03:32:00;;;;;;;16.50;14.17;;;3.00;99.90;;;;;;5026534;28;20483;-73
2023/03/16 03:34:25;;;;;;;18.63;16.67;;;2.80;99.90;;;;;;5026274;28;20806;-71
2023/03/16 03:36:52;;;;;;;18.30;16.37;;;2.90;99.90;;;;;;5025640;28;20805;-70
2023/03/16 03:39:18;;;;;;;18.17;16.30;;;2.90;99.90;;;;;;5026360;28;20262;-71
2023/03/16 03:41:43;;;;;;;18.30;16.40;;;2.70;99.90;;;;;;5025767;28;20564;-71
2023/03/16 03:44:09;;;;;;;19.20;16.70;;;2.70;99.90;;;;;;5026267;28;20721;-72
2023/03/16 03:46:35;;;;;;;16.73;15.03;;;2.70;99.90;;;;;;5025494;28;20262;-70
2023/03/16 03:49:03;;;;;;;19.50;17.47;;;2.80;99.90;;;;;;5025804;28;20556;-72
2023/03/16 03:51:32;;;;;;;18.10;16.27;;;2.80;99.90;;;;;;5025116;28;20266;-74
2023/03/16 03:53:58;;;;;;;19.53;17.30;;;2.90;99.90;;;;;;5025844;28;20944;-70
2023/03/16 03:56:24;;;;;;;18.67;16.73;;;2.90;99.90;;;;;;5024115;28;20417;-70
2023/03/16 03:58:50;;;;;;;17.00;14.53;;;3.00;99.90;;;;;;5025985;28;20828;-72
2023/03/16 04:01:16;;;;;;;16.70;15.00;;;3.00;99.90;;;;;;5024141;28;20464;-70
2023/03/16 04:03:41;;;;;;;18.03;16.10;;;3.00;99.90;;;;;;5024648;28;20683;-75
2023/03/16 04:06:07;;;;;;;18.63;16.40;;;2.90;99.90;;;;;;5025071;28;20524;-71
2023/03/16 04:08:33;;;;;;;16.30;14.43;;;2.90;99.90;;;;;;5025122;28;20207;-71
2023/03/16 04:10:59;;;;;;;19.90;16.60;;;2.90;99.90;;;;;;5025698;28;20277;-72
2023/03/16 04:13:25;;;;;;;14.87;13.30;;;3.00;99.90;;;;;;5025435;28;20925;-70
2023/03/16 04:15:58;;;;;;;17.03;15.20;;;2.90;99.90;;;;;;5025574;28;20425;-71
2023/03/16 04:18:23;;;;;;;21.77;19.17;;;3.00;99.90;;;;;;5025223;28;20773;-70
2023/03/16 04:20:51;;;;;;;18.07;16.20;;;3.00;99.90;;;;;;5025319;28;20456;-72
2023/03/16 04:23:18;;;;;;;15.43;13.77;;;3.00;99.90;;;;;;5023870;28;20681;-72
2023/03/16 04:25:44;;;;;;;22.60;18.13;;;2.90;99.90;;;;;;5025308;28;20417;-71
2023/03/16 04:28:09;;;;;;;19.70;17.60;;;2.90;99.90;;;;;;5023748;28;20422;-70
2023/03/16 04:30:35;;;;;;;21.13;18.23;;;2.80;99.90;;;;;;5025065;28;20594;-71
2023/03/16 04:33:01;;;;;;;19.17;16.83;;;2.80;99.90;;;;;;5023949;28;20250;-72
2023/03/16 04:35:26;;;;;;;20.67;18.27;;;2.80;99.90;;;;;;5025160;28;20262;-73
2023/03/16 04:37:52;;;;;;;20.20;18.20;;;2.80;99.90;;;;;;5022952;28;20180;-71
2023/03/16 04:40:18;;;;;;;17.47;15.27;;;2.70;99.90;;;;;;5023494;28;20963;-70
2023/03/16 04:42:45;;;;;;;17.43;15.20;;;2.70;99.90;;;;;;5025327;28;20282;-74
2023/03/16 04:45:12;;;;;;;17.07;14.73;;;2.60;99.90;;;;;;5024096;28;20425;-74
2023/03/16 04:47:38;;;;;;;17.57;15.70;;;2.60;99.90;;;;;;5023703;28;21123;-70
2023/03/16 04:50:04;;;;;;;18.47;15.23;;;2.60;99.90;;;;;;5025221;28;20406;-72
2023/03/16 04:52:30;;;;;;;19.23;17.10;;;2.70;99.90;;;;;;5024605;28;20432;-73
2023/03/16 04:54:56;;;;;;;19.63;16.07;;;2.60;99.90;;;;;;5025047;28;20799;-74
2023/03/16 04:57:22;;;;;;;17.63;15.70;;;2.60;99.90;;;;;;5023534;28;20454;-72
2023/03/16 04:59:48;;;;;;;18.03;15.10;;;2.70;99.90;;;;;;5024724;28;20596;-74
2023/03/16 05:02:13;;;;;;;16.67;14.87;;;2.60;99.90;;;;;;5024515;28;20482;-71
2023/03/16 05:04:39;;;;;;;17.87;15.10;;;2.60;99.90;;;;;;5024727;28;21114;-70
2023/03/16 05:07:05;;;;;;;16.43;13.70;;;2.60;99.90;;;;;;5023604;28;20274;-71
2023/03/16 05:09:30;;;;;;;17.40;14.40;;;2.50;99.90;;;;;;5024395;28;20270;-72
2023/03/16 05:11:56;;;;;;;18.30;15.97;;;2.50;99.90;;;;;;5024758;28;20226;-72
2023/03/16 05:14:22;;;;;;;17.17;14.70;;;2.40;99.90;;;;;;5024474;28;20448;-70
2023/03/16 05:16:48;;;;;;;15.83;14.13;;;2.40;99.90;;;;;;5024382;28;20186;-71
2023/03/16 05:19:13;;;;;;;20.27;16.77;;;2.40;99.90;;;;;;5022940;28;20417;-69
2023/03/16 05:21:39;;;;;;;14.87;13.27;;;2.50;99.90;;;;;;5024092;28;20207;-72
2023/03/16 05:24:05;;;;;;;19.40;16.73;;;2.50;99.90;;;;;;5024039;28;20266;-72
2023/03/16 05:26:30;;;;;;;17.03;15.30;;;2.50;99.90;;;;;;5024425;28;20175;-71
2023/03/16 05:28:57;;;;;;;15.80;14.17;;;2.60;99.90;;;;;;5024566;28;20485;-71
2023/03/16 05:31:25;;;;;;;18.33;15.20;;;2.60;99.90;;;;;;5024168;28;20175;-70
2023/03/16 05:33:52;;;;;;;20.40;13.47;;;2.60;99.90;;;;;;5024218;28;20422;-74
2023/03/16 05:36:17;;;;;;;18.47;15.87;;;2.60;99.90;;;;;;5023995;28;20410;-72
2023/03/16 05:38:44;;;;;;;16.60;14.20;;;2.50;99.90;;;;;;5021495;28;20436;-70
2023/03/16 05:41:10;;;;;;;20.03;17.90;;;2.40;99.90;;;;;;5022956;28;20229;-70
2023/03/16 05:43:35;;;;;;;15.60;13.97;;;2.50;99.90;;;;;;5021910;28;20434;-71
2023/03/16 05:46:01;;;;;;;17.90;15.00;;;2.40;99.90;;;;;;5023880;28;20179;-73
2023/03/16 05:48:26;;;;;;;17.53;15.63;;;2.50;99.90;;;;;;5021844;28;20553;-71
2023/03/16 05:50:52;;;;;;;21.20;16.80;;;2.50;99.90;;;;;;5022814;28;20182;-73
2023/03/16 05:53:18;;;;;;;18.00;16.10;;;2.50;99.90;;;;;;5023542;28;20694;-72
2023/03/16 05:55:44;;;;;;;20.83;17.17;;;2.50;99.90;;;;;;5024409;28;20504;-74
2023/03/16 05:58:10;;;;;;;16.43;14.10;;;2.50;99.90;;;;;;5022787;28;20463;-74
2023/03/16 06:00:38;;;;;;;19.33;15.97;;;2.50;99.90;;;;;;5022488;28;20822;-71
2023/03/16 06:03:03;;;;;;;23.40;18.57;;;2.60;99.90;;;;;;5021137;28;20454;-72
2023/03/16 06:05:30;;;;;;;19.07;16.07;;;2.60;99.90;;;;;;5022358;28;20418;-73
2023/03/16 06:07:56;;;;;;;20.37;16.17;;;2.60;99.90;;;;;;5022621;28;20175;-71
2023/03/16 06:10:22;;;;;;;18.77;16.63;;;2.60;99.90;;;;;;5022109;28;20414;-73
2023/03/16 06:12:48;;;;;;;23.43;19.97;;;2.60;99.90;;;;;;5023128;28;20693;-69
2023/03/16 06:15:14;;;;;;;23.23;18.37;;;2.70;99.90;;;;;;5023198;28;20497;-73
2023/03/16 06:17:40;;;;;;;19.40;16.43;;;2.60;99.90;;;;;;5024328;28;20226;-68
2023/03/16 06:20:09;;;;;;;18.63;16.47;;;2.70;99.90;;;;;;5025029;28;20186;-74
2023/03/16 06:22:37;;;;;;;20.37;17.57;;;2.70;99.90;;;;;;5023070;28;20465;-73
2023/03/16 06:25:03;;;;;;;21.17;17.67;;;2.70;99.90;;;;;;5025244;28;20548;-71
2023/03/16 06:27:29;;;;;;;23.20;16.40;;;2.70;99.90;;;;;;5022760;28;20425;-70
2023/03/16 06:29:54;;;;;;;20.47;16.40;;;2.80;99.90;;;;;;5023853;28;20422;-70
2023/03/16 06:32:20;;;;;;;19.27;15.23;;;2.90;99.90;;;;;;5023374;28;20711;-69
2023/03/16 06:34:46;;;;;;;21.33;16.90;;;2.90;99.90;;;;;;5023956;28;20179;-73
2023/03/16 06:37:12;;;;;;;19.37;16.20;;;3.00;99.90;;;;;;5023373;28;20420;-71
2023/03/16 06:39:38;;;;;;;20.77;17.40;;;3.10;99.90;;;;;;5023572;28;20414;-73
2023/03/16 06:42:04;;;;;;;18.60;15.80;;;3.10;99.90;;;;;;5023321;28;20199;-72
2023/03/16 06:44:30;;;;;;;19.40;16.13;;;3.10;99.90;;;;;;5023399;28;20207;-74
2023/03/16 06:46:56;;;;;;;17.30;15.50;;;3.10;99.90;;;;;;5023318;28;20537;-71
2023/03/16 06:49:22;;;;;;;27.93;20.17;;;3.20;99.90;;;;;;5023293;28;20792;-72
2023/03/16 06:51:47;;;;;;;25.57;19.70;;;3.20;99.90;;;;;;5023138;28;20430;-72
2023/03/16 06:54:13;;;;;;;24.27;18.93;;;3.30;99.90;;;;;;5020683;28;20951;-70
2023/03/16 06:56:39;;;;;;;21.50;18.77;;;3.30;99.90;;;;;;5023655;28;20178;-73
2023/03/16 06:59:05;;;;;;;22.93;19.23;;;3.30;99.90;;;;;;5023183;28;20418;-75
2023/03/16 07:01:30;;;;;;;22.50;19.30;;;3.30;99.90;;;;;;5026090;28;20544;-73
2023/03/16 07:03:56;;;;;;;22.20;17.77;;;3.40;99.90;;;;;;5026935;28;20229;-70
2023/03/16 07:06:21;;;;;;;22.57;18.33;;;3.50;99.90;;;;;;5027099;28;20233;-72
2023/03/16 07:08:47;;;;;;;24.50;18.67;;;3.50;99.90;;;;;;5027039;28;20178;-74
2023/03/16 07:11:13;;;;;;;21.37;16.37;;;3.60;99.90;;;;;;5027050;28;20662;-73
2023/03/16 07:13:39;;;;;;;22.83;18.40;;;3.60;99.90;;;;;;5027634;28;20171;-71
2023/03/16 07:16:05;;;;;;;23.67;20.27;;;3.70;99.90;;;;;;5026629;28;20437;-72
2023/03/16 07:18:31;;;;;;;23.10;18.60;;;3.60;99.90;;;;;;5026454;28;20421;-72
2023/03/16 07:20:57;;;;;;;21.93;19.60;;;3.80;99.90;;;;;;5026481;28;20449;-71
2023/03/16 07:23:23;;;;;;;20.03;17.30;;;4.10;99.90;;;;;;5026215;28;20245;-71
2023/03/16 07:25:50;;;;;;;18.80;16.20;;;4.20;99.90;;;;;;5026593;28;20225;-69
2023/03/16 07:28:19;;;;;;;21.67;16.90;;;4.40;99.90;;;;;;5025499;28;20525;-73
2023/03/16 07:30:46;;;;;;;19.07;16.10;;;4.50;99.90;;;;;;5025760;28;20742;-73
2023/03/16 07:33:11;;;;;;;18.70;15.50;;;4.60;99.90;;;;;;5026094;28;20430;-72
2023/03/16 07:35:37;;;;;;;18.93;16.90;;;4.60;99.90;;;;;;5025210;28;20410;-75
2023/03/16 07:38:03;;;;;;;17.00;15.40;;;4.70;99.90;;;;;;5026126;28;20187;-70
2023/03/16 07:40:29;;;;;;;17.73;15.43;;;4.80;99.90;;;;;;5026363;28;20562;-70
2023/03/16 07:42:54;;;;;;;19.43;15.43;;;4.90;99.90;;;;;;5025709;28;20456;-73
2023/03/16 07:45:20;;;;;;;19.27;16.33;;;5.00;99.90;;;;;;5026006;28;20650;-70
2023/03/16 07:47:46;;;;;;;17.50;15.23;;;5.10;99.90;;;;;;5026205;28;20460;-72
2023/03/16 07:50:15;;;;;;;18.03;15.67;;;5.10;99.90;;;;;;5026010;28;20175;-74
2023/03/16 07:52:40;;;;;;;16.77;14.97;;;5.00;99.90;;;;;;5025618;28;20492;-72
2023/03/16 07:55:07;;;;;;;16.83;14.93;;;5.10;99.90;;;;;;5026002;28;20406;-70
2023/03/16 07:57:32;;;;;;;16.60;14.07;;;5.10;99.90;;;;;;5025176;28;20189;-69
2023/03/16 07:59:58;;;;;;;15.63;14.03;;;5.30;99.90;;;;;;5025805;28;20430;-72
2023/03/16 08:02:24;;;;;;;14.40;12.90;;;5.40;99.90;;;;;;5025413;28;20697;-71
2023/03/16 08:04:50;;;;;;;16.70;14.97;;;5.50;99.90;;;;;;5025875;28;20656;-70
2023/03/16 08:07:16;;;;;;;17.60;15.70;;;5.60;99.90;;;;;;5025540;28;20603;-70
2023/03/16 08:09:42;;;;;;;17.00;15.20;;;5.80;99.90;;;;;;5025886;28;20732;-68
2023/03/16 08:12:08;;;;;;;16.77;15.00;;;5.90;99.90;;;;;;5024945;28;20456;-72
2023/03/16 08:14:35;;;;;;;16.40;14.60;;;5.90;99.90;;;;;;5024953;28;20418;-71
2023/03/16 08:17:02;;;;;;;17.00;15.17;;;6.10;99.90;;;;;;5025454;28;20467;-70
2023/03/16 08:19:28;;;;;;;16.60;14.83;;;6.10;99.90;;;;;;5024556;28;20428;-75
2023/03/16 08:21:54;;;;;;;14.30;12.90;;;6.20;99.90;;;;;;5025152;28;20557;-70
2023/03/16 08:24:19;;;;;;;16.60;13.53;;;6.30;99.90;;;;;;5025589;28;20176;-71
2023/03/16 08:26:46;;;;;;;12.90;11.30;;;6.50;99.90;;;;;;5025066;28;20180;-71
2023/03/16 08:29:12;;;;;;;15.63;13.37;;;6.40;99.90;;;;;;5025569;28;20175;-74
2023/03/16 08:31:38;;;;;;;12.33;10.87;;;6.50;99.90;;;;;;5024017;28;20814;-70
2023/03/16 08:34:04;;;;;;;12.60;11.40;;;6.50;99.90;;;;;;5024949;28;20816;-70
2023/03/16 08:36:30;;;;;;;9.60;8.70;;;6.60;99.90;;;;;;5023525;28;20453;-70
2023/03/16 08:38:55;;;;;;;10.07;8.50;;;6.50;99.90;;;;;;5023523;28;20473;-70
2023/03/16 08:41:21;;;;;;;10.60;8.03;;;6.60;99.90;;;;;;5024903;28;20195;-73
2023/03/16 08:43:48;;;;;;;10.17;9.17;;;6.70;99.90;;;;;;5024727;28;20180;-71
2023/03/16 08:46:14;;;;;;;9.83;8.70;;;6.80;99.90;;;;;;5026244;28;20421;-71
2023/03/16 08:48:40;;;;;;;10.40;8.87;;;6.80;99.90;;;;;;5024916;28;20476;-71
2023/03/16 08:51:07;;;;;;;7.97;7.17;;;6.90;99.90;;;;;;5024575;28;20789;-68
2023/03/16 08:53:32;;;;;;;9.27;8.20;;;6.80;99.90;;;;;;5024426;28;20426;-70
2023/03/16 08:56:06;;;;;;;9.80;8.80;;;6.80;99.90;;;;;;5023228;28;20482;-71
2023/03/16 08:58:33;;;;;;;10.90;8.80;;;6.90;99.90;;;;;;5025080;28;20188;-72
2023/03/16 09:01:00;;;;;;;8.83;7.93;;;7.00;99.90;;;;;;5024885;28;20908;-72
2023/03/16 09:03:26;;;;;;;9.13;8.23;;;7.00;99.90;;;;;;5024739;28;20448;-70
2023/03/16 09:05:53;;;;;;;10.93;7.97;;;6.80;99.90;;;;;;5024919;28;20922;-70
2023/03/16 09:08:19;;;;;;;11.67;8.73;;;6.90;99.90;;;;;;5024499;28;20197;-72
2023/03/16 09:10:45;;;;;;;11.60;9.07;;;6.80;99.90;;;;;;5024684;28;20414;-71
2023/03/16 09:13:11;;;;;;;10.83;7.37;;;6.80;99.90;;;;;;5024702;28;20202;-72
2023/03/16 09:15:38;;;;;;;11.60;8.63;;;7.00;99.90;;;;;;5024371;28;20414;-71
2023/03/16 09:18:04;;;;;;;8.80;7.90;;;7.10;99.90;;;;;;5024702;28;20177;-72
2023/03/16 09:20:30;;;;;;;8.67;6.97;;;7.20;99.90;;;;;;5024315;28;20451;-70
2023/03/16 09:22:57;;;;;;;8.80;7.90;;;7.20;99.90;;;;;;5023583;28;20509;-71
2023/03/16 09:25:24;;;;;;;7.87;7.07;;;7.30;99.90;;;;;;5023439;28;20893;-70
2023/03/16 09:27:50;;;;;;;11.00;7.10;;;7.50;99.90;;;;;;5024107;28;20414;-69
2023/03/16 09:30:15;;;;;;;8.50;7.70;;;7.60;99.90;;;;;;5024119;28;20906;-70
2023/03/16 09:32:41;;;;;;;10.87;7.97;;;7.60;99.90;;;;;;5023689;28;20463;-70
2023/03/16 09:35:07;;;;;;;7.63;6.80;;;7.60;99.90;;;;;;5024298;28;20728;-71
2023/03/16 09:37:33;;;;;;;10.37;7.00;;;7.40;99.90;;;;;;5024163;28;20542;-72
2023/03/16 09:39:59;;;;;;;12.27;7.97;;;7.60;99.90;;;;;;5023961;28;20412;-67
2023/03/16 09:42:36;;;;;;;7.47;6.17;;;7.80;99.90;;;;;;5023858;28;20468;-71
2023/03/16 09:45:13;;;;;;;7.07;6.37;;;7.90;99.90;;;;;;5022870;28;20428;-71
2023/03/16 09:47:40;;;;;;;7.80;6.67;;;8.10;99.90;;;;;;5024862;28;20773;-69
2023/03/16 09:50:12;;;;;;;6.90;5.53;;;8.20;99.90;;;;;;5024554;28;20425;-71
2023/03/16 09:52:54;;;;;;;9.97;6.50;;;8.40;99.90;;;;;;5024740;28;20452;-70
2023/03/16 09:55:36;;;;;;;7.10;5.87;;;8.50;99.90;;;;;;5025009;28;20518;-71
2023/03/16 09:58:05;;;;;;;5.63;5.10;;;8.60;99.90;;;;;;5024672;28;20984;-71
2023/03/16 10:00:40;;;;;;;6.50;5.40;;;8.80;99.90;;;;;;5023843;28;20426;-72
2023/03/16 10:03:13;;;;;;;6.53;5.80;;;9.10;99.90;;;;;;5023241;28;20460;-71
2023/03/16 10:05:39;;;;;;;6.63;5.83;;;9.30;99.90;;;;;;5024739;28;20716;-71
2023/03/16 10:08:37;;;;;;;6.37;5.67;;;9.20;99.90;;;;;;5025455;28;20402;-72
2023/03/16 10:11:22;;;;;;;8.83;6.03;;;9.30;99.90;;;;;;5024748;28;20421;-71
2023/03/16 10:13:50;;;;;;;5.60;5.10;;;9.50;99.90;;;;;;5023800;28;20410;-72
2023/03/16 10:16:34;;;;;;;7.00;5.83;;;9.70;99.90;;;;;;5022874;28;20453;-68
2023/03/16 10:19:24;;;;;;;7.13;6.43;;;9.50;99.90;;;;;;5023761;28;20402;-70
2023/03/16 10:21:53;;;;;;;7.43;6.10;;;9.60;99.90;;;;;;5024112;23;21055;-72
2023/03/16 10:24:35;;;;;;;5.60;5.10;;;9.80;99.90;;;;;;5002704;28;20988;-70
2023/03/16 10:27:06;;;;;;;7.67;6.83;;;9.90;99.90;;;;;;5004339;28;20397;-69
2023/03/16 10:29:37;;;;;;;6.93;6.20;;;10.00;99.90;;;;;;5004349;28;20407;-71
2023/03/16 10:32:18;;;;;;;7.53;5.87;;;10.40;99.90;;;;;;5003484;28;20465;-73
2023/03/16 10:34:51;;;;;;;11.63;6.50;;;10.70;99.90;;;;;;5003973;28;20416;-74
2023/03/16 10:37:17;;;;;;;7.67;6.67;;;10.70;99.90;;;;;;5007835;28;20418;-70
2023/03/16 10:39:43;;;;;;;7.63;6.70;;;10.50;99.90;;;;;;5007759;28;20443;-71
2023/03/16 10:42:18;;;;;;;5.57;5.07;;;10.40;99.90;;;;;;5007711;28;20449;-70
2023/03/16 10:44:45;;;;;;;9.03;4.53;;;10.30;99.90;;;;;;5007561;28;20180;-72
2023/03/16 10:47:27;;;;;;;5.53;4.60;;;10.30;99.90;;;;;;5007424;28;20785;-71
2023/03/16 10:49:54;;;;;;;5.90;4.80;;;10.30;99.90;;;;;;5007308;28;20415;-71
2023/03/16 10:52:36;;;;;;;7.57;4.07;;;10.60;99.90;;;;;;5007181;28;20943;-73
2023/03/16 10:55:31;;;;;;;7.27;5.10;;;10.80;99.90;;;;;;5007613;28;20829;-71
2023/03/16 10:57:57;;;;;;;6.90;4.10;;;10.90;99.90;;;;;;5007277;28;20418;-73
2023/03/16 11:00:28;;;;;;;4.93;4.40;;;10.90;99.90;;;;;;5007890;28;20434;-71
2023/03/16 11:02:55;;;;;;;5.53;4.00;;;11.10;99.70;;;;;;5007349;28;20649;-70
2023/03/16 11:05:33;;;;;;;5.53;4.30;;;11.20;99.30;;;;;;5006998;28;20426;-71
2023/03/16 11:08:08;;;;;;;4.77;4.17;;;11.10;99.50;;;;;;5006025;28;20569;-71
2023/03/16 11:10:36;;;;;;;3.77;3.47;;;11.20;98.60;;;;;;5007424;28;20445;-69
2023/03/16 11:13:13;;;;;;;5.90;3.77;;;11.30;98.10;;;;;;5005907;28;20411;-71
2023/03/16 11:15:43;;;;;;;6.00;3.73;;;11.40;99.10;;;;;;5007057;28;20406;-71
2023/03/16 11:18:22;;;;;;;4.83;3.60;;;12.00;98.30;;;;;;5006910;28;20490;-72
2023/03/16 11:20:48;;;;;;;5.13;3.53;;;12.50;96.50;;;;;;5006466;28;21035;-72
2023/03/16 11:23:18;;;;;;;3.60;3.13;;;12.80;94.60;;;;;;5006896;28;20412;-71
2023/03/16 11:25:50;;;;;;;4.80;3.63;;;14.30;93.20;;;;;;5007425;28;20183;-71
2023/03/16 11:28:33;;;;;;;4.23;3.47;;;15.80;91.80;;;;;;5007219;28;20409;-71
2023/03/16 11:31:23;;;;;;;4.23;3.07;;;16.10;88.40;;;;;;5006865;28;20436;-72
2023/03/16 11:33:49;;;;;;;4.47;3.20;;;17.50;85.10;;;;;;5006912;28;20410;-71
2023/03/16 11:36:20;;;;;;;3.43;3.10;;;18.20;76.70;;;;;;5005372;28;20945;-73
2023/03/16 11:38:57;;;;;;;3.93;3.10;;;18.40;77.80;;;;;;5006171;28;20430;-73
2023/03/16 11:41:47;;;;;;;4.63;3.10;;;19.40;72.60;;;;;;5006539;28;21472;-73
2023/03/16 11:44:36;;;;;;;4.23;3.70;;;20.00;70.30;;;;;;5006656;28;20411;-72
2023/03/16 11:47:22;;;;;;;6.70;3.53;;;18.30;70.50;;;;;;5005750;28;20774;-72
2023/03/16 11:50:00;;;;;;;6.80;3.50;;;18.30;70.30;;;;;;5006942;28;20940;-69
2023/03/16 11:52:48;;;;;;;4.97;3.20;;;19.20;67.70;;;;;;5005341;28;20422;-71
2023/03/16 11:55:32;;;;;;;3.43;3.13;;;18.40;68.40;;;;;;5006040;28;20774;-70
2023/03/16 11:58:07;;;;;;;4.13;3.33;;;18.80;69.50;;;;;;5006140;28;20979;-69
2023/03/16 12:00:56;;;;;;;3.60;3.30;;;18.20;69.00;;;;;;5006165;28;20453;-69
2023/03/16 12:04:06;;;;;;;3.90;2.60;;;18.20;67.10;;;;;;5005163;28;20419;-71
2023/03/16 12:06:47;;;;;;;4.97;3.33;;;20.30;64.60;;;;;;4925907;29;20521;-72
2023/03/16 12:09:30;;;;;;;4.97;3.40;;;20.80;62.90;;;;;;4926192;29;20509;-70
2023/03/16 12:12:04;;;;;;;4.80;3.10;;;21.70;62.40;;;;;;4984029;28;20475;-72
2023/03/16 12:14:44;;;;;;;4.03;3.00;;;21.20;62.00;;;;;;5006137;28;20920;-74
2023/03/16 12:17:18;;;;;;;4.10;2.90;;;21.10;59.80;;;;;;5005917;28;20975;-73
2023/03/16 12:19:56;;;;;;;5.03;3.20;;;22.20;57.50;;;;;;5005434;28;20410;-73
2023/03/16 12:22:37;;;;;;;3.33;3.03;;;22.30;57.50;;;;;;5004911;28;20486;-71
2023/03/16 12:25:10;;;;;;;3.93;3.40;;;23.20;57.30;;;;;;5005630;28;21227;-71
2023/03/16 12:27:40;;;;;;;3.23;2.90;;;21.40;56.80;;;;;;5004332;28;20430;-71
2023/03/16 12:30:29;;;;;;;3.07;2.73;;;21.40;57.10;;;;;;5004789;28;20453;-71
2023/03/16 12:33:18;;;;;;;5.17;3.03;;;20.90;58.40;;;;;;5005416;28;20422;-71
2023/03/16 12:36:11;;;;;;;6.70;3.70;;;21.30;56.20;;;;;;5005600;28;20497;-71
2023/03/16 12:38:59;;;;;;;4.63;3.20;;;19.10;58.60;;;;;;5005242;28;20457;-71
2023/03/16 12:42:04;;;;;;;4.73;3.23;;;19.70;59.00;;;;;;5005261;28;20463;-71
2023/03/16 12:44:45;;;;;;;3.90;3.60;;;19.40;60.90;;;;;;5005772;28;20407;-75
2023/03/16 12:47:22;;;;;;;5.63;3.20;;;18.80;60.00;;;;;;5005375;28;20421;-70
2023/03/16 12:49:50;;;;;;;5.27;3.47;;;18.70;61.20;;;;;;5005023;28;20442;-69
2023/03/16 12:52:16;;;;;;;6.07;4.30;;;18.60;59.50;;;;;;5004609;28;20422;-70